Winters, California
Current Conditions -  °F | °C
As of 10:53 AM on Friday 28 Nov 2014 (Local Time) from KVCB Reporting Station
Clear Clear  
Wind Chill: 61°   Ceiling: Unl
Heat Index: 61°   Visibility: 10mi
Dew Point: 47°   Wind: 0mph
Humidity: 60%   Direction: NA
Pressure: 30"   Gusts: NA
Location:  38.52°N, 121.97°W
Report Text: KVCB 281853Z AUTO 00000KT 10SM CLR 16/08 A3000 RMK AO2 SLP159 T01610083 TSNO
Loading
Personal Weather Stations






























Interactive Weather Map New forecast layout! Learn more

10-Day Weather Forecast

Advertisements
Track Severe Weather on mobile